Aruba, Aruba

09:09 AM AST del 25 Agosto 2016 (GMT -0400)
Oranjestad-Reina Beatrix International | | Change Station

Alt. 59 ft 12.50 °N, 70.02 °W | Updated 9 minutes ago

Partly Cloudy
Parzialmente nuvoloso
88 °F
Sembra 102 °F
N
20
Vento Variabile Vento da Est

Oggi
Massima -- | Minima -- °F
--% Possibilità di precip.
Ieri
Massima -- | Minima -- °F
Precip. -- in
Pressione 29.80 in
Visibilità 6.2 miglia
Nuvole Alcuni 1800 ft
Indice di calore 102 °F
Punto di rugiada 79 °F
Umidità 75%
Piovosità 0.00 in
Spessore del manto nevoso Non disponibile.
6:29 AM 6:54 PM
Ultimo quarto, 46% visible
METAR TNCA 251300Z 10017KT 9999 FEW018 31/26 Q1009 A2982 NOSIG
Pressione 29.80 in
Visibilità 6.2 miglia
Nuvole Alcuni 1800 ft
Indice di calore 102 °F
Punto di rugiada 79 °F
Umidità 75%
Piovosità 0.00 in
Spessore del manto nevoso Non disponibile.
6:29 AM 6:54 PM
Ultimo quarto, 46% visible
METAR TNCA 251300Z 10017KT 9999 FEW018 31/26 Q1009 A2982 NOSIG

10-Day Weather Forecast

No radar image for this location.
×

Almanac

Astronomia

Aug. 25, 2016 Alba Tramonto
Ora attuale
Crepuscolo civile
Crepuscolo nautico
Crepuscolo astronomico
Luna
Estensione della luce visibile
Lunghezza del giorno
Tomorrow will be .
, % of the Moon is Illuminated

Gli estremi di oggi

Massime Regione Minime Regione

Community

WunderPhotos

Upload Photos

1,934,837 foto caricate!

WunderBlog® & News

Nearby

Qualità dell'aria

  Qualità dell'aria Indice AQ Inquinante
Not available.

Profondità neve

Stazione Profondità Altitudine

Attività sismica

Città  Distanza Mag. Data & Ora
Minimo Magnitudo Mostrato è 2.5.

Temperature delle acque costiere

Località Temperatura

Stations

Stazioni meteo nelle vicinanze

Ubicazione della stazione Temp. Raffreddamento del vento Punto di rugiada Umidità Vento Precip. Alt. Aggiornato Tipo